Terminal Aerodrome Forecast
Issued by NWS

Home | Current Version | Previous Version | Text Only | Print | Product List | Glossary On
Versions: 1 2 3 4 5 6 7 8 9 10 11 12 13 14 15 16 17 18
000
FTUS43 KICT 020540
TAFCNU
TAF
KCNU 020540Z 0206/0306 04004KT P6SM OVC090
     FM021600 06007KT P6SM SCT080 BKN250
     FM022300 03007KT P6SM OVC170=

USA.gov is the U.S. government's official web portal to all federal, state and local government web resources and services.